Jump to content


AMERICAN EAGLE FLIGHT MQ3533 FLOWN ON 09-09-2017 BY CAPTAIN JIM BOERMAN

Pilot StatsCaptain Jim Boerman (LDP136) • 4,648.3 total hours • 1,417 total flights [View Logbook]
FLIGHT DETAILS
StatusReceived and approved on 2017-09-09 at 12:09:18
Origin AirportMontreal-Pierre-Elliott-Trudeau (CYUL) • Montreal, Quebec, Canada (118 feet MSL)
Filed Flight PlanFLIGHT PLANNER OFFLINE
Destination AirportDallas-Ft Worth Intl (KDFW) • Dallas-Ft Worth, Texas, United States (607 feet MSL)
Alternate AirportSheppard AFB-Wichita Falls Mun (KSPS) • Wichita Falls, Texas, United States (1,019 feet MSL)
AirlineAmerican Eagle
AircraftEmbraer E-175 (E75 / E175)
FS Aircraft UsedEmbraer 175 American Eagle
Cruising AltitudeFL360
Distance Flown1,313 nautical miles
Passengers Onboard76 passengers (90.48% full)
DEPARTURE DETAILS
Time Out08:25:08
Taxi Data83,089 lbs total with 16,815 lbs of fuel onboard
Takeoff Data08:35:10 (10 minutes after leaving gate/ramp) • 82,625 lbs total • 6° pitch at 158 knots
Departure METARCYUL 091100Z 33005KT 15SM BKN032 13/12 A3025 RMK SC7 SLP247
ARRIVAL DETAILS
Landing Data11:13:32 • 71,381 lbs total • 4° pitch doing 121 knots at a rate of -82.28 feet/minute with 4,779 lbs of fuel onboard
Time In11:23:22 (10 minutes after landing)
Ramp Weight71,032 lbs total
Total Fuel Used12,036 lbs
Total Block Time03:52:06 (3.9 hours) while 20 minutes were spent on the ground
Arrival METARKDFW 091553Z 07008KT 10SM CLR 26/13 A3022 RMK AO2 SLP224 T02560128
MISCELLANEOUS DETAILS
LiveDISPATCH Version4.8.3.1
FS Version
FSUIPC Version4.93
OS VersionWindows 7 32-bit
Screen Resolution1920 x 1080
Pilot's CommentsNo Comments Reported
FLIGHT MAP